sensor_id;sensor_type;location;lat;lon;timestamp;temperature;humidity
57030;DHT22;42920;45.306;20.448;2023-06-14T00:11:31;460.90;2380.80
57030;DHT22;42920;45.306;20.448;2023-06-14T00:13:57;436.10;2355.20
57030;DHT22;42920;45.306;20.448;2023-06-14T00:16:23;436.10;2355.20
57030;DHT22;42920;45.306;20.448;2023-06-14T00:18:49;436.10;2355.20
57030;DHT22;42920;45.306;20.448;2023-06-14T00:21:18;436.10;2355.20
57030;DHT22;42920;45.306;20.448;2023-06-14T00:23:45;436.00;2355.20
57030;DHT22;42920;45.306;20.448;2023-06-14T00:26:11;435.80;2355.20
57030;DHT22;42920;45.306;20.448;2023-06-14T00:28:36;435.90;2355.20
57030;DHT22;42920;45.306;20.448;2023-06-14T00:31:02;435.80;2355.20
57030;DHT22;42920;45.306;20.448;2023-06-14T00:33:28;435.80;2355.20
57030;DHT22;42920;45.306;20.448;2023-06-14T00:35:54;435.70;2355.20
57030;DHT22;42920;45.306;20.448;2023-06-14T00:38:20;435.80;2355.20
57030;DHT22;42920;45.306;20.448;2023-06-14T00:40:46;435.80;2355.20
57030;DHT22;42920;45.306;20.448;2023-06-14T00:43:12;435.80;2355.20
57030;DHT22;42920;45.306;20.448;2023-06-14T00:45:38;435.70;2355.20
57030;DHT22;42920;45.306;20.448;2023-06-14T00:48:05;435.80;2355.20
57030;DHT22;42920;45.306;20.448;2023-06-14T00:50:32;435.60;2355.20
57030;DHT22;42920;45.306;20.448;2023-06-14T00:53:00;435.60;2355.20
57030;DHT22;42920;45.306;20.448;2023-06-14T00:55:27;435.60;2355.20
57030;DHT22;42920;45.306;20.448;2023-06-14T00:57:54;435.60;2355.20
57030;DHT22;42920;45.306;20.448;2023-06-14T01:00:20;435.60;2355.20
57030;DHT22;42920;45.306;20.448;2023-06-14T01:02:46;435.50;2355.20
57030;DHT22;42920;45.306;20.448;2023-06-14T01:05:12;435.50;2355.20
57030;DHT22;42920;45.306;20.448;2023-06-14T01:07:50;435.40;2355.20
57030;DHT22;42920;45.306;20.448;2023-06-14T01:15:23;435.50;2355.20
57030;DHT22;42920;45.306;20.448;2023-06-14T01:17:50;435.50;2355.20
57030;DHT22;42920;45.306;20.448;2023-06-14T01:20:20;435.60;2355.20
57030;DHT22;42920;45.306;20.448;2023-06-14T01:22:53;435.60;2355.20
57030;DHT22;42920;45.306;20.448;2023-06-14T01:25:19;435.50;2355.20
57030;DHT22;42920;45.306;20.448;2023-06-14T01:27:50;435.50;2355.20
57030;DHT22;42920;45.306;20.448;2023-06-14T01:30:17;435.50;2355.20
57030;DHT22;42920;45.306;20.448;2023-06-14T01:32:44;435.50;2355.20
57030;DHT22;42920;45.306;20.448;2023-06-14T01:35:10;435.60;2355.20
57030;DHT22;42920;45.306;20.448;2023-06-14T01:37:36;435.60;2355.20
57030;DHT22;42920;45.306;20.448;2023-06-14T01:40:04;435.50;2355.20
57030;DHT22;42920;45.306;20.448;2023-06-14T01:42:33;435.50;2355.20
57030;DHT22;42920;45.306;20.448;2023-06-14T01:45:02;435.40;2355.20
57030;DHT22;42920;45.306;20.448;2023-06-14T01:47:29;435.30;2355.20
57030;DHT22;42920;45.306;20.448;2023-06-14T01:49:55;435.30;2355.20
57030;DHT22;42920;45.306;20.448;2023-06-14T01:52:21;435.30;2355.20
57030;DHT22;42920;45.306;20.448;2023-06-14T01:54:47;435.30;2355.20
57030;DHT22;42920;45.306;20.448;2023-06-14T01:57:15;435.30;2355.20
57030;DHT22;42920;45.306;20.448;2023-06-14T01:59:41;410.50;2355.20
57030;DHT22;42920;45.306;20.448;2023-06-14T02:02:06;410.50;2355.20
57030;DHT22;42920;45.306;20.448;2023-06-14T02:04:33;410.50;2355.20
57030;DHT22;42920;45.306;20.448;2023-06-14T02:06:59;435.20;2355.20
57030;DHT22;42920;45.306;20.448;2023-06-14T02:09:25;435.30;2355.20
57030;DHT22;42920;45.306;20.448;2023-06-14T02:11:51;435.20;2355.20
57030;DHT22;42920;45.306;20.448;2023-06-14T02:14:16;435.20;2355.20
57030;DHT22;42920;45.306;20.448;2023-06-14T02:16:43;435.20;2355.20
57030;DHT22;42920;45.306;20.448;2023-06-14T02:19:18;410.50;2355.20
57030;DHT22;42920;45.306;20.448;2023-06-14T02:21:45;410.50;2355.20
57030;DHT22;42920;45.306;20.448;2023-06-14T02:24:10;410.50;2355.20
57030;DHT22;42920;45.306;20.448;2023-06-14T02:26:37;410.40;2355.20
57030;DHT22;42920;45.306;20.448;2023-06-14T02:29:07;410.40;2355.20
57030;DHT22;42920;45.306;20.448;2023-06-14T02:31:36;410.50;2355.20
57030;DHT22;42920;45.306;20.448;2023-06-14T02:34:02;410.40;2355.20
57030;DHT22;42920;45.306;20.448;2023-06-14T02:36:28;410.40;2355.20
57030;DHT22;42920;45.306;20.448;2023-06-14T02:38:57;410.50;2355.20
57030;DHT22;42920;45.306;20.448;2023-06-14T02:41:26;410.50;2355.20
57030;DHT22;42920;45.306;20.448;2023-06-14T02:43:52;410.50;2355.20
57030;DHT22;42920;45.306;20.448;2023-06-14T02:46:18;410.30;2355.20
57030;DHT22;42920;45.306;20.448;2023-06-14T02:48:44;410.30;2355.20
57030;DHT22;42920;45.306;20.448;2023-06-14T02:51:09;410.30;2355.20
57030;DHT22;42920;45.306;20.448;2023-06-14T02:53:35;410.50;2355.20
57030;DHT22;42920;45.306;20.448;2023-06-14T02:56:02;410.40;2355.20
57030;DHT22;42920;45.306;20.448;2023-06-14T02:58:29;410.30;2355.20
57030;DHT22;42920;45.306;20.448;2023-06-14T03:00:55;410.30;2355.20
57030;DHT22;42920;45.306;20.448;2023-06-14T03:03:21;410.30;2355.20
57030;DHT22;42920;45.306;20.448;2023-06-14T03:05:50;410.40;2355.20
57030;DHT22;42920;45.306;20.448;2023-06-14T03:08:16;410.40;2355.20
57030;DHT22;42920;45.306;20.448;2023-06-14T03:10:47;410.40;2355.20
57030;DHT22;42920;45.306;20.448;2023-06-14T03:13:14;410.40;2355.20
57030;DHT22;42920;45.306;20.448;2023-06-14T03:15:41;410.50;2355.20
57030;DHT22;42920;45.306;20.448;2023-06-14T03:18:08;410.40;2355.20
57030;DHT22;42920;45.306;20.448;2023-06-14T03:20:35;410.40;2355.20
57030;DHT22;42920;45.306;20.448;2023-06-14T03:23:02;410.50;2355.20
57030;DHT22;42920;45.306;20.448;2023-06-14T03:25:28;435.20;2355.20
57030;DHT22;42920;45.306;20.448;2023-06-14T03:27:57;435.20;2355.20
57030;DHT22;42920;45.306;20.448;2023-06-14T03:30:23;435.30;2355.20
57030;DHT22;42920;45.306;20.448;2023-06-14T03:32:49;435.30;2355.20
57030;DHT22;42920;45.306;20.448;2023-06-14T03:35:17;435.30;2355.20
57030;DHT22;42920;45.306;20.448;2023-06-14T03:37:46;435.30;2355.20
57030;DHT22;42920;45.306;20.448;2023-06-14T03:40:15;435.30;2355.20
57030;DHT22;42920;45.306;20.448;2023-06-14T03:42:41;435.40;2355.20
57030;DHT22;42920;45.306;20.448;2023-06-14T03:45:07;435.30;2355.20
57030;DHT22;42920;45.306;20.448;2023-06-14T03:47:33;435.50;2355.20
57030;DHT22;42920;45.306;20.448;2023-06-14T03:49:59;435.30;2355.20
57030;DHT22;42920;45.306;20.448;2023-06-14T03:52:27;435.40;2355.20
57030;DHT22;42920;45.306;20.448;2023-06-14T03:54:53;435.30;2355.20
57030;DHT22;42920;45.306;20.448;2023-06-14T03:57:19;435.30;2355.20
57030;DHT22;42920;45.306;20.448;2023-06-14T03:59:45;435.30;2355.20
57030;DHT22;42920;45.306;20.448;2023-06-14T04:02:12;435.40;2355.20
57030;DHT22;42920;45.306;20.448;2023-06-14T04:04:41;435.60;2355.20
57030;DHT22;42920;45.306;20.448;2023-06-14T04:07:10;435.50;2355.20
57030;DHT22;42920;45.306;20.448;2023-06-14T04:09:37;435.50;2355.20
57030;DHT22;42920;45.306;20.448;2023-06-14T04:12:04;435.40;2355.20
57030;DHT22;42920;45.306;20.448;2023-06-14T04:14:29;435.40;2355.20
57030;DHT22;42920;45.306;20.448;2023-06-14T04:16:56;435.30;2355.20
57030;DHT22;42920;45.306;20.448;2023-06-14T04:19:22;435.50;2355.20
57030;DHT22;42920;45.306;20.448;2023-06-14T04:21:47;435.60;2355.20
57030;DHT22;42920;45.306;20.448;2023-06-14T04:24:13;435.60;2355.20
57030;DHT22;42920;45.306;20.448;2023-06-14T04:26:43;435.70;2355.20
57030;DHT22;42920;45.306;20.448;2023-06-14T04:29:14;435.80;2355.20
57030;DHT22;42920;45.306;20.448;2023-06-14T04:31:42;435.70;2355.20
57030;DHT22;42920;45.306;20.448;2023-06-14T04:34:08;435.80;2355.20
57030;DHT22;42920;45.306;20.448;2023-06-14T04:36:34;435.80;2355.20
57030;DHT22;42920;45.306;20.448;2023-06-14T04:39:03;435.80;2355.20
57030;DHT22;42920;45.306;20.448;2023-06-14T04:41:32;436.00;2355.20
57030;DHT22;42920;45.306;20.448;2023-06-14T04:43:59;436.10;2355.20
57030;DHT22;42920;45.306;20.448;2023-06-14T04:46:28;460.80;2380.80
57030;DHT22;42920;45.306;20.448;2023-06-14T04:48:54;460.80;2380.80
57030;DHT22;42920;45.306;20.448;2023-06-14T04:51:20;460.90;2380.80
57030;DHT22;42920;45.306;20.448;2023-06-14T04:53:48;460.90;2380.80
57030;DHT22;42920;45.306;20.448;2023-06-14T04:56:15;460.90;2380.80
57030;DHT22;42920;45.306;20.448;2023-06-14T04:58:42;461.00;2380.80
57030;DHT22;42920;45.306;20.448;2023-06-14T05:01:09;461.10;2380.80
57030;DHT22;42920;45.306;20.448;2023-06-14T05:03:35;461.10;2380.80
57030;DHT22;42920;45.306;20.448;2023-06-14T05:06:00;461.10;2380.80
57030;DHT22;42920;45.306;20.448;2023-06-14T05:08:26;461.30;2380.80
57030;DHT22;42920;45.306;20.448;2023-06-14T05:10:52;461.30;2380.80
57030;DHT22;42920;45.306;20.448;2023-06-14T05:13:18;461.30;2380.80
57030;DHT22;42920;45.306;20.448;2023-06-14T05:15:44;461.40;2380.80
57030;DHT22;42920;45.306;20.448;2023-06-14T05:18:10;461.40;2380.80
57030;DHT22;42920;45.306;20.448;2023-06-14T05:20:35;461.40;2380.80
57030;DHT22;42920;45.306;20.448;2023-06-14T05:23:03;461.50;2380.80
57030;DHT22;42920;45.306;20.448;2023-06-14T05:25:28;461.60;2380.80
57030;DHT22;42920;45.306;20.448;2023-06-14T05:27:54;461.70;2380.80
57030;DHT22;42920;45.306;20.448;2023-06-14T05:30:20;486.40;2380.80
57030;DHT22;42920;45.306;20.448;2023-06-14T05:32:46;486.40;2380.80
57030;DHT22;42920;45.306;20.448;2023-06-14T05:35:11;486.40;2380.80
57030;DHT22;42920;45.306;20.448;2023-06-14T05:37:37;486.60;2380.80
57030;DHT22;42920;45.306;20.448;2023-06-14T05:40:04;486.60;2380.80
57030;DHT22;42920;45.306;20.448;2023-06-14T05:42:33;486.80;2380.80
57030;DHT22;42920;45.306;20.448;2023-06-14T05:44:59;486.90;2380.80
57030;DHT22;42920;45.306;20.448;2023-06-14T05:47:25;486.90;2380.80
57030;DHT22;42920;45.306;20.448;2023-06-14T05:49:51;487.00;2380.80
57030;DHT22;42920;45.306;20.448;2023-06-14T05:52:16;487.10;2380.80
57030;DHT22;42920;45.306;20.448;2023-06-14T05:54:42;487.20;2380.80
57030;DHT22;42920;45.306;20.448;2023-06-14T05:57:08;487.30;2380.80
57030;DHT22;42920;45.306;20.448;2023-06-14T05:59:34;487.30;2380.80
57030;DHT22;42920;45.306;20.448;2023-06-14T06:01:59;512.20;2380.80
57030;DHT22;42920;45.306;20.448;2023-06-14T06:04:25;512.20;2380.80
57030;DHT22;42920;45.306;20.448;2023-06-14T06:06:51;512.40;2380.80
57030;DHT22;42920;45.306;20.448;2023-06-14T06:09:16;512.60;2380.80
57030;DHT22;42920;45.306;20.448;2023-06-14T06:11:42;512.80;2380.80
57030;DHT22;42920;45.306;20.448;2023-06-14T06:14:08;512.90;2380.80
57030;DHT22;42920;45.306;20.448;2023-06-14T06:16:33;512.90;2380.80
57030;DHT22;42920;45.306;20.448;2023-06-14T06:18:59;537.60;2406.40
57030;DHT22;42920;45.306;20.448;2023-06-14T06:21:25;537.70;2406.40
57030;DHT22;42920;45.306;20.448;2023-06-14T06:23:51;537.90;2406.40
57030;DHT22;42920;45.306;20.448;2023-06-14T06:26:17;538.00;2406.40
57030;DHT22;42920;45.306;20.448;2023-06-14T06:28:42;538.10;2406.40
57030;DHT22;42920;45.306;20.448;2023-06-14T06:31:08;538.20;2406.40
57030;DHT22;42920;45.306;20.448;2023-06-14T06:33:35;538.30;2406.40
57030;DHT22;42920;45.306;20.448;2023-06-14T06:36:01;538.40;2406.40
57030;DHT22;42920;45.306;20.448;2023-06-14T06:38:26;538.40;2406.40
57030;DHT22;42920;45.306;20.448;2023-06-14T06:48:12;563.30;2432.00
57030;DHT22;42920;45.306;20.448;2023-06-14T06:50:37;563.20;2432.00
57030;DHT22;42920;45.306;20.448;2023-06-14T06:53:03;563.30;2432.00
57030;DHT22;42920;45.306;20.448;2023-06-14T06:55:30;563.40;2432.00
57030;DHT22;42920;45.306;20.448;2023-06-14T06:57:56;563.40;2432.00
57030;DHT22;42920;45.306;20.448;2023-06-14T07:00:22;563.50;2432.00
57030;DHT22;42920;45.306;20.448;2023-06-14T07:02:47;563.60;2406.40
57030;DHT22;42920;45.306;20.448;2023-06-14T07:05:13;563.70;2304.00
57030;DHT22;42920;45.306;20.448;2023-06-14T07:07:39;563.90;2227.20
57030;DHT22;42920;45.306;20.448;2023-06-14T07:10:05;564.10;2278.40
57030;DHT22;42920;45.306;20.448;2023-06-14T07:12:31;564.10;2099.20
57030;DHT22;42920;45.306;20.448;2023-06-14T07:14:59;588.80;2150.40
57030;DHT22;42920;45.306;20.448;2023-06-14T07:17:25;588.90;2048.00
57030;DHT22;42920;45.306;20.448;2023-06-14T07:19:51;588.90;2176.00
57030;DHT22;42920;45.306;20.448;2023-06-14T07:22:17;588.90;2022.40
57030;DHT22;42920;45.306;20.448;2023-06-14T07:24:43;588.90;2048.00
57030;DHT22;42920;45.306;20.448;2023-06-14T07:27:09;589.10;2099.20
57030;DHT22;42920;45.306;20.448;2023-06-14T07:29:35;589.30;2124.80
57030;DHT22;42920;45.306;20.448;2023-06-14T07:32:01;589.40;2073.60
57030;DHT22;42920;45.306;20.448;2023-06-14T07:34:26;589.40;1920.00
57030;DHT22;42920;45.306;20.448;2023-06-14T07:36:52;589.20;1817.60
57030;DHT22;42920;45.306;20.448;2023-06-14T07:39:19;589.40;1894.40
57030;DHT22;42920;45.306;20.448;2023-06-14T07:41:45;589.60;1792.00
57030;DHT22;42920;45.306;20.448;2023-06-14T07:44:11;589.70;1843.20
57030;DHT22;42920;45.306;20.448;2023-06-14T07:46:37;614.40;1664.00
57030;DHT22;42920;45.306;20.448;2023-06-14T07:49:03;614.50;1689.60
57030;DHT22;42920;45.306;20.448;2023-06-14T07:51:29;614.40;1638.40
57030;DHT22;42920;45.306;20.448;2023-06-14T07:53:55;589.70;1792.00
57030;DHT22;42920;45.306;20.448;2023-06-14T07:56:21;589.60;1792.00
57030;DHT22;42920;45.306;20.448;2023-06-14T07:58:48;589.70;1689.60
57030;DHT22;42920;45.306;20.448;2023-06-14T08:01:14;589.70;1612.80
57030;DHT22;42920;45.306;20.448;2023-06-14T08:03:40;614.40;1612.80
57030;DHT22;42920;45.306;20.448;2023-06-14T08:06:07;614.60;1612.80
57030;DHT22;42920;45.306;20.448;2023-06-14T08:08:33;614.70;1536.00
57030;DHT22;42920;45.306;20.448;2023-06-14T08:10:58;614.90;1536.00
57030;DHT22;42920;45.306;20.448;2023-06-14T08:13:24;614.80;1459.20
57030;DHT22;42920;45.306;20.448;2023-06-14T08:15:50;614.90;1561.60
57030;DHT22;42920;45.306;20.448;2023-06-14T08:18:15;615.00;1433.60
57030;DHT22;42920;45.306;20.448;2023-06-14T08:20:41;615.30;1305.60
57030;DHT22;42920;45.306;20.448;2023-06-14T08:23:07;615.20;1305.60
57030;DHT22;42920;45.306;20.448;2023-06-14T08:25:34;615.20;1382.40
57030;DHT22;42920;45.306;20.448;2023-06-14T08:28:00;615.10;1408.00
57030;DHT22;42920;45.306;20.448;2023-06-14T08:30:26;615.10;1382.40
57030;DHT22;42920;45.306;20.448;2023-06-14T08:32:52;615.10;1356.80
57030;DHT22;42920;45.306;20.448;2023-06-14T08:35:21;615.00;1408.00
57030;DHT22;42920;45.306;20.448;2023-06-14T08:37:47;614.90;1536.00
57030;DHT22;42920;45.306;20.448;2023-06-14T08:40:23;614.90;1484.80
57030;DHT22;42920;45.306;20.448;2023-06-14T08:42:53;615.10;1408.00
57030;DHT22;42920;45.306;20.448;2023-06-14T08:45:20;615.10;1433.60
57030;DHT22;42920;45.306;20.448;2023-06-14T08:47:47;615.20;1433.60
57030;DHT22;42920;45.306;20.448;2023-06-14T08:50:21;615.20;1459.20
57030;DHT22;42920;45.306;20.448;2023-06-14T08:52:53;615.20;1356.80
57030;DHT22;42920;45.306;20.448;2023-06-14T08:55:19;615.20;1356.80
57030;DHT22;42920;45.306;20.448;2023-06-14T08:57:46;615.20;1356.80
57030;DHT22;42920;45.306;20.448;2023-06-14T09:00:13;615.20;1382.40
57030;DHT22;42920;45.306;20.448;2023-06-14T09:02:40;615.20;1459.20
57030;DHT22;42920;45.306;20.448;2023-06-14T09:05:12;615.20;1484.80
57030;DHT22;42920;45.306;20.448;2023-06-14T09:07:40;615.20;1382.40
57030;DHT22;42920;45.306;20.448;2023-06-14T09:10:08;640.00;1433.60
57030;DHT22;42920;45.306;20.448;2023-06-14T09:12:35;640.00;1382.40
57030;DHT22;42920;45.306;20.448;2023-06-14T09:15:01;640.10;1382.40
57030;DHT22;42920;45.306;20.448;2023-06-14T09:17:32;640.10;1408.00
57030;DHT22;42920;45.306;20.448;2023-06-14T09:19:58;640.00;1459.20
57030;DHT22;42920;45.306;20.448;2023-06-14T09:22:24;640.20;1433.60
57030;DHT22;42920;45.306;20.448;2023-06-14T09:24:50;640.10;1433.60
57030;DHT22;42920;45.306;20.448;2023-06-14T09:27:16;640.10;1408.00
57030;DHT22;42920;45.306;20.448;2023-06-14T09:29:41;640.10;1382.40
57030;DHT22;42920;45.306;20.448;2023-06-14T09:32:07;615.20;1433.60
57030;DHT22;42920;45.306;20.448;2023-06-14T09:34:35;615.10;1459.20
57030;DHT22;42920;45.306;20.448;2023-06-14T09:37:01;615.10;1408.00
57030;DHT22;42920;45.306;20.448;2023-06-14T09:39:27;615.20;1484.80
57030;DHT22;42920;45.306;20.448;2023-06-14T09:41:52;640.00;1382.40
57030;DHT22;42920;45.306;20.448;2023-06-14T09:44:19;640.00;1459.20
57030;DHT22;42920;45.306;20.448;2023-06-14T09:46:46;640.10;1382.40
57030;DHT22;42920;45.306;20.448;2023-06-14T09:49:12;640.40;1382.40
57030;DHT22;42920;45.306;20.448;2023-06-14T09:51:45;640.40;1433.60
57030;DHT22;42920;45.306;20.448;2023-06-14T09:54:16;640.10;1408.00
57030;DHT22;42920;45.306;20.448;2023-06-14T09:56:44;640.30;1382.40
57030;DHT22;42920;45.306;20.448;2023-06-14T09:59:12;640.50;1382.40
57030;DHT22;42920;45.306;20.448;2023-06-14T10:01:42;640.50;1408.00
57030;DHT22;42920;45.306;20.448;2023-06-14T10:04:10;640.50;1433.60
57030;DHT22;42920;45.306;20.448;2023-06-14T10:06:45;640.50;1382.40
57030;DHT22;42920;45.306;20.448;2023-06-14T10:09:11;640.80;1331.20
57030;DHT22;42920;45.306;20.448;2023-06-14T10:11:38;665.60;1408.00
57030;DHT22;42920;45.306;20.448;2023-06-14T10:14:10;665.80;1331.20
57030;DHT22;42920;45.306;20.448;2023-06-14T10:19:29;666.10;1331.20
57030;DHT22;42920;45.306;20.448;2023-06-14T10:22:14;666.20;1356.80
57030;DHT22;42920;45.306;20.448;2023-06-14T10:24:43;666.20;1254.40
57030;DHT22;42920;45.306;20.448;2023-06-14T10:27:13;666.00;1356.80
57030;DHT22;42920;45.306;20.448;2023-06-14T10:32:21;666.20;1408.00
57030;DHT22;42920;45.306;20.448;2023-06-14T10:35:00;666.30;1356.80
57030;DHT22;42920;45.306;20.448;2023-06-14T10:37:27;666.30;1305.60
57030;DHT22;42920;45.306;20.448;2023-06-14T10:39:53;666.40;1382.40
57030;DHT22;42920;45.306;20.448;2023-06-14T10:42:19;666.50;1382.40
57030;DHT22;42920;45.306;20.448;2023-06-14T10:44:45;666.30;1408.00
57030;DHT22;42920;45.306;20.448;2023-06-14T10:47:29;666.30;1433.60
57030;DHT22;42920;45.306;20.448;2023-06-14T10:52:41;691.30;1305.60
57030;DHT22;42920;45.306;20.448;2023-06-14T10:57:51;691.40;1305.60
57030;DHT22;42920;45.306;20.448;2023-06-14T11:00:19;691.30;1356.80
57030;DHT22;42920;45.306;20.448;2023-06-14T11:05:49;691.30;1280.00
57030;DHT22;42920;45.306;20.448;2023-06-14T11:11:22;691.20;1254.40
57030;DHT22;42920;45.306;20.448;2023-06-14T11:13:51;691.30;1305.60
57030;DHT22;42920;45.306;20.448;2023-06-14T11:16:18;691.50;1356.80
57030;DHT22;42920;45.306;20.448;2023-06-14T11:18:47;691.60;1331.20
57030;DHT22;42920;45.306;20.448;2023-06-14T11:21:16;691.60;1356.80
57030;DHT22;42920;45.306;20.448;2023-06-14T11:23:49;691.70;1331.20
57030;DHT22;42920;45.306;20.448;2023-06-14T11:26:16;691.60;1280.00
57030;DHT22;42920;45.306;20.448;2023-06-14T11:28:55;691.30;1280.00
57030;DHT22;42920;45.306;20.448;2023-06-14T11:31:22;666.50;1356.80
57030;DHT22;42920;45.306;20.448;2023-06-14T11:33:50;691.30;1356.80
57030;DHT22;42920;45.306;20.448;2023-06-14T11:36:16;691.70;1305.60
57030;DHT22;42920;45.306;20.448;2023-06-14T11:38:42;691.90;1305.60
57030;DHT22;42920;45.306;20.448;2023-06-14T11:41:08;692.00;1331.20
57030;DHT22;42920;45.306;20.448;2023-06-14T11:43:33;691.60;1331.20
57030;DHT22;42920;45.306;20.448;2023-06-14T11:46:01;691.70;1305.60
57030;DHT22;42920;45.306;20.448;2023-06-14T11:48:42;691.60;1280.00
57030;DHT22;42920;45.306;20.448;2023-06-14T11:51:08;691.60;1305.60
57030;DHT22;42920;45.306;20.448;2023-06-14T11:53:34;691.40;1331.20
57030;DHT22;42920;45.306;20.448;2023-06-14T11:56:01;691.60;1331.20
57030;DHT22;42920;45.306;20.448;2023-06-14T11:58:27;691.80;1331.20
57030;DHT22;42920;45.306;20.448;2023-06-14T12:00:54;691.90;1331.20
57030;DHT22;42920;45.306;20.448;2023-06-14T12:03:24;691.70;1305.60
57030;DHT22;42920;45.306;20.448;2023-06-14T12:06:06;691.80;1408.00
57030;DHT22;42920;45.306;20.448;2023-06-14T12:08:36;691.90;1280.00
57030;DHT22;42920;45.306;20.448;2023-06-14T12:11:13;691.70;1331.20
57030;DHT22;42920;45.306;20.448;2023-06-14T12:13:42;691.60;1408.00
57030;DHT22;42920;45.306;20.448;2023-06-14T12:16:09;691.60;1382.40
57030;DHT22;42920;45.306;20.448;2023-06-14T12:18:37;691.40;1382.40
57030;DHT22;42920;45.306;20.448;2023-06-14T12:21:04;691.20;1382.40
57030;DHT22;42920;45.306;20.448;2023-06-14T12:23:48;691.50;1331.20
57030;DHT22;42920;45.306;20.448;2023-06-14T12:26:18;691.70;1356.80
57030;DHT22;42920;45.306;20.448;2023-06-14T12:28:45;691.60;1356.80
57030;DHT22;42920;45.306;20.448;2023-06-14T12:31:12;691.70;1305.60
57030;DHT22;42920;45.306;20.448;2023-06-14T12:33:39;691.90;1356.80
57030;DHT22;42920;45.306;20.448;2023-06-14T12:36:07;716.80;1408.00
57030;DHT22;42920;45.306;20.448;2023-06-14T12:38:34;716.90;1408.00
57030;DHT22;42920;45.306;20.448;2023-06-14T12:41:00;717.00;1331.20
57030;DHT22;42920;45.306;20.448;2023-06-14T12:43:26;691.80;1356.80
57030;DHT22;42920;45.306;20.448;2023-06-14T12:45:51;691.90;1331.20
57030;DHT22;42920;45.306;20.448;2023-06-14T12:48:17;692.00;1382.40
57030;DHT22;42920;45.306;20.448;2023-06-14T12:50:43;717.10;1433.60
57030;DHT22;42920;45.306;20.448;2023-06-14T12:53:09;716.80;1408.00
57030;DHT22;42920;45.306;20.448;2023-06-14T12:55:34;691.90;1331.20
57030;DHT22;42920;45.306;20.448;2023-06-14T12:58:00;692.10;1382.40
57030;DHT22;42920;45.306;20.448;2023-06-14T13:00:26;692.10;1280.00
57030;DHT22;42920;45.306;20.448;2023-06-14T13:02:52;716.80;1356.80
57030;DHT22;42920;45.306;20.448;2023-06-14T13:05:18;691.90;1356.80
57030;DHT22;42920;45.306;20.448;2023-06-14T13:07:44;692.10;1408.00
57030;DHT22;42920;45.306;20.448;2023-06-14T13:10:10;691.80;1356.80
57030;DHT22;42920;45.306;20.448;2023-06-14T13:12:36;691.70;1408.00
57030;DHT22;42920;45.306;20.448;2023-06-14T13:15:02;691.80;1408.00
57030;DHT22;42920;45.306;20.448;2023-06-14T13:17:27;716.80;1459.20
57030;DHT22;42920;45.306;20.448;2023-06-14T13:19:53;692.10;1382.40
57030;DHT22;42920;45.306;20.448;2023-06-14T13:22:19;691.90;1382.40
57030;DHT22;42920;45.306;20.448;2023-06-14T13:24:45;691.90;1356.80
57030;DHT22;42920;45.306;20.448;2023-06-14T13:27:10;691.80;1331.20
57030;DHT22;42920;45.306;20.448;2023-06-14T13:29:36;691.80;1356.80
57030;DHT22;42920;45.306;20.448;2023-06-14T13:32:03;692.00;1305.60
57030;DHT22;42920;45.306;20.448;2023-06-14T13:34:29;692.10;1356.80
57030;DHT22;42920;45.306;20.448;2023-06-14T13:36:54;716.80;1382.40
57030;DHT22;42920;45.306;20.448;2023-06-14T13:39:20;717.10;1331.20
57030;DHT22;42920;45.306;20.448;2023-06-14T13:41:46;717.20;1382.40
57030;DHT22;42920;45.306;20.448;2023-06-14T13:44:12;717.10;1382.40
57030;DHT22;42920;45.306;20.448;2023-06-14T13:46:40;717.20;1356.80
57030;DHT22;42920;45.306;20.448;2023-06-14T13:49:05;717.40;1382.40
57030;DHT22;42920;45.306;20.448;2023-06-14T13:51:31;717.50;1331.20
57030;DHT22;42920;45.306;20.448;2023-06-14T13:53:57;717.10;1331.20
57030;DHT22;42920;45.306;20.448;2023-06-14T13:56:23;716.90;1356.80
57030;DHT22;42920;45.306;20.448;2023-06-14T13:58:50;716.80;1331.20
57030;DHT22;42920;45.306;20.448;2023-06-14T14:01:16;692.00;1305.60
57030;DHT22;42920;45.306;20.448;2023-06-14T14:03:43;691.70;1408.00
57030;DHT22;42920;45.306;20.448;2023-06-14T14:06:10;691.40;1356.80
57030;DHT22;42920;45.306;20.448;2023-06-14T14:08:36;691.70;1356.80
57030;DHT22;42920;45.306;20.448;2023-06-14T14:11:02;691.70;1433.60
57030;DHT22;42920;45.306;20.448;2023-06-14T14:13:28;691.60;1382.40
57030;DHT22;42920;45.306;20.448;2023-06-14T14:15:53;691.70;1382.40
57030;DHT22;42920;45.306;20.448;2023-06-14T14:18:19;691.80;1305.60
57030;DHT22;42920;45.306;20.448;2023-06-14T14:20:48;692.10;1305.60
57030;DHT22;42920;45.306;20.448;2023-06-14T14:23:14;716.90;1331.20
57030;DHT22;42920;45.306;20.448;2023-06-14T14:25:40;717.10;1280.00
57030;DHT22;42920;45.306;20.448;2023-06-14T14:28:06;716.80;1331.20
57030;DHT22;42920;45.306;20.448;2023-06-14T14:30:31;716.80;1356.80
57030;DHT22;42920;45.306;20.448;2023-06-14T14:32:58;717.00;1254.40
57030;DHT22;42920;45.306;20.448;2023-06-14T14:35:24;692.00;1280.00
57030;DHT22;42920;45.306;20.448;2023-06-14T14:37:51;691.50;1305.60
57030;DHT22;42920;45.306;20.448;2023-06-14T14:40:17;691.60;1305.60
57030;DHT22;42920;45.306;20.448;2023-06-14T14:42:43;691.90;1305.60
57030;DHT22;42920;45.306;20.448;2023-06-14T14:45:09;691.90;1305.60
57030;DHT22;42920;45.306;20.448;2023-06-14T14:47:35;691.70;1305.60
57030;DHT22;42920;45.306;20.448;2023-06-14T14:50:00;691.70;1331.20
57030;DHT22;42920;45.306;20.448;2023-06-14T14:52:26;691.90;1356.80
57030;DHT22;42920;45.306;20.448;2023-06-14T14:54:52;691.90;1280.00
57030;DHT22;42920;45.306;20.448;2023-06-14T14:57:18;692.10;1331.20
57030;DHT22;42920;45.306;20.448;2023-06-14T14:59:44;692.10;1280.00
57030;DHT22;42920;45.306;20.448;2023-06-14T15:02:10;692.00;1280.00
57030;DHT22;42920;45.306;20.448;2023-06-14T15:04:36;692.10;1305.60
57030;DHT22;42920;45.306;20.448;2023-06-14T15:07:01;692.00;1280.00
57030;DHT22;42920;45.306;20.448;2023-06-14T15:09:27;692.10;1280.00
57030;DHT22;42920;45.306;20.448;2023-06-14T15:11:53;691.80;1331.20
57030;DHT22;42920;45.306;20.448;2023-06-14T15:14:18;691.60;1331.20